Time;durP1;ratioP1;P1;durP2;ratioP2;P2;SDS_P1;SDS_P2;PMS_P1;PMS_P2;Temp;Humidity;BMP_temperature;BMP_pressure;BME280_temperature;BME280_humidity;BME280_pressure;Samples;Min_cycle;Max_cycle;Signal;HPM_P1;HPM_P2
2021/09/08 00:00:20;;;;;;;6.60;3.78;;;;;;;13.36;100.00;101348.69;5168906;28;20032;-79
2021/09/08 00:02:50;;;;;;;7.03;4.43;;;;;;;13.49;100.00;101349.09;5173234;28;20117;-79
2021/09/08 00:05:21;;;;;;;6.82;3.80;;;;;;;13.51;100.00;101342.91;5160208;28;20108;-79
2021/09/08 00:07:51;;;;;;;8.57;3.80;;;;;;;13.55;100.00;101344.50;5169606;28;20515;-78
2021/09/08 00:10:21;;;;;;;6.85;4.07;;;;;;;13.55;100.00;101341.88;5176776;28;20104;-77
2021/09/08 00:12:52;;;;;;;7.47;3.78;;;;;;;13.61;100.00;101349.53;5169727;28;20286;-77
2021/09/08 00:15:23;;;;;;;5.28;3.90;;;;;;;13.44;100.00;101345.78;5173507;28;20026;-77
2021/09/08 00:17:53;;;;;;;5.22;3.70;;;;;;;13.35;100.00;101343.47;5152271;28;20049;-78
2021/09/08 00:20:23;;;;;;;5.88;3.80;;;;;;;13.32;100.00;101346.22;5170649;28;20030;-77
2021/09/08 00:22:54;;;;;;;5.60;3.20;;;;;;;13.43;100.00;101349.34;5161348;28;20054;-78
2021/09/08 00:25:24;;;;;;;6.28;3.70;;;;;;;13.27;100.00;101348.16;5169464;28;20077;-78
2021/09/08 00:27:54;;;;;;;5.60;3.78;;;;;;;13.34;100.00;101340.00;5173030;28;20030;-78
2021/09/08 00:30:24;;;;;;;6.13;3.30;;;;;;;13.37;100.00;101339.06;5168191;28;20102;-78
2021/09/08 00:32:55;;;;;;;7.22;3.80;;;;;;;13.21;100.00;101343.97;5162580;28;20415;-77
2021/09/08 00:35:25;;;;;;;6.28;3.42;;;;;;;12.95;100.00;101342.28;5155597;28;20030;-79
2021/09/08 00:37:55;;;;;;;6.95;3.67;;;;;;;13.09;100.00;101338.28;5170443;28;20069;-78
2021/09/08 00:40:26;;;;;;;5.40;3.83;;;;;;;13.11;100.00;101345.19;5172515;28;20033;-78
2021/09/08 00:42:56;;;;;;;6.65;3.40;;;;;;;13.02;100.00;101334.13;5152500;28;20062;-77
2021/09/08 00:45:26;;;;;;;5.18;3.35;;;;;;;12.90;100.00;101332.72;5172613;28;20485;-77
2021/09/08 00:47:56;;;;;;;5.45;2.85;;;;;;;13.02;100.00;101336.75;5170407;28;20042;-78
2021/09/08 00:50:27;;;;;;;4.47;2.65;;;;;;;12.99;100.00;101336.84;5170030;28;20199;-77
2021/09/08 00:53:00;;;;;;;4.38;2.97;;;;;;;13.04;100.00;101334.94;5160513;28;20034;-77
2021/09/08 00:55:30;;;;;;;4.65;3.15;;;;;;;12.97;100.00;101335.22;5170447;28;20034;-78
2021/09/08 00:58:01;;;;;;;4.45;2.97;;;;;;;12.89;100.00;101332.81;5171633;28;20096;-77
2021/09/08 01:00:31;;;;;;;4.45;3.15;;;;;;;12.85;100.00;101338.19;5150486;28;20026;-78
2021/09/08 01:03:01;;;;;;;5.20;3.20;;;;;;;12.78;100.00;101332.28;5162165;28;20492;-78
2021/09/08 01:05:32;;;;;;;7.57;4.00;;;;;;;12.75;100.00;101327.13;5170963;28;20363;-78
2021/09/08 01:08:04;;;;;;;5.55;3.40;;;;;;;12.75;100.00;101324.50;5170830;28;20069;-78
2021/09/08 01:10:34;;;;;;;5.22;3.67;;;;;;;12.80;100.00;101325.22;5171144;28;20056;-78
2021/09/08 01:13:06;;;;;;;7.20;4.13;;;;;;;12.80;100.00;101322.59;5170869;28;20030;-77
2021/09/08 01:15:36;;;;;;;6.85;3.90;;;;;;;12.79;100.00;101320.88;5170897;28;20407;-77
2021/09/08 01:18:06;;;;;;;6.85;3.83;;;;;;;12.80;100.00;101319.13;5170791;28;20030;-78
2021/09/08 01:20:37;;;;;;;6.57;4.15;;;;;;;12.71;100.00;101314.16;5167725;28;20028;-78
2021/09/08 01:23:07;;;;;;;7.00;4.20;;;;;;;12.71;100.00;101315.03;5160809;28;20072;-78
2021/09/08 01:25:38;;;;;;;6.53;3.95;;;;;;;12.67;100.00;101316.03;5168708;28;20088;-78
2021/09/08 01:28:08;;;;;;;6.40;4.35;;;;;;;12.67;100.00;101312.56;5171066;28;20046;-78
2021/09/08 01:30:41;;;;;;;7.05;4.22;;;;;;;12.58;100.00;101313.72;5166382;28;20030;-78
2021/09/08 01:33:13;;;;;;;6.78;4.55;;;;;;;12.67;100.00;101313.41;5166814;28;20480;-78
2021/09/08 01:35:44;;;;;;;6.90;4.50;;;;;;;12.57;100.00;101312.00;5172494;28;20026;-77
2021/09/08 01:38:15;;;;;;;7.30;4.28;;;;;;;12.57;100.00;101306.75;5169903;28;20031;-77
2021/09/08 01:40:45;;;;;;;7.95;4.38;;;;;;;12.53;100.00;101310.38;5172409;28;20033;-79
2021/09/08 01:43:21;;;;;;;7.05;4.15;;;;;;;12.53;100.00;101305.13;5172575;28;20026;-79
2021/09/08 01:45:52;;;;;;;6.53;3.97;;;;;;;12.45;100.00;101311.53;5173066;28;20037;-79
2021/09/08 01:48:23;;;;;;;7.25;4.35;;;;;;;12.39;100.00;101309.94;5174961;28;20026;-78
2021/09/08 01:50:53;;;;;;;6.13;3.97;;;;;;;12.44;100.00;101310.66;5175300;28;20095;-78
2021/09/08 01:53:23;;;;;;;7.43;4.45;;;;;;;12.45;100.00;101312.38;5166780;28;20028;-77
2021/09/08 01:55:54;;;;;;;7.00;4.60;;;;;;;12.62;100.00;101317.94;5175635;28;20034;-78
2021/09/08 01:58:24;;;;;;;6.60;4.28;;;;;;;12.66;100.00;101308.22;5173407;28;20041;-78
2021/09/08 02:00:54;;;;;;;7.18;4.70;;;;;;;12.62;100.00;101309.22;5170697;28;20121;-78
2021/09/08 02:03:25;;;;;;;8.15;4.40;;;;;;;12.62;100.00;101309.22;5167782;28;20029;-77
2021/09/08 02:05:55;;;;;;;7.20;4.47;;;;;;;12.71;100.00;101304.53;5171574;28;20397;-77
2021/09/08 02:08:26;;;;;;;6.53;4.35;;;;;;;12.72;100.00;101308.88;5175478;28;20392;-77
2021/09/08 02:10:56;;;;;;;7.65;4.60;;;;;;;12.57;100.00;101306.75;5172624;28;20038;-78
2021/09/08 02:13:26;;;;;;;7.97;4.90;;;;;;;12.78;100.00;101308.66;5174669;28;20033;-78
2021/09/08 02:15:56;;;;;;;7.57;5.03;;;;;;;12.74;100.00;101307.06;5172541;28;20300;-79
2021/09/08 02:18:27;;;;;;;6.70;4.20;;;;;;;12.77;100.00;101303.50;5174466;28;20392;-78
2021/09/08 02:20:57;;;;;;;7.95;4.50;;;;;;;12.67;100.00;101307.31;5169224;28;20699;-78
2021/09/08 02:23:27;;;;;;;6.70;4.28;;;;;;;12.60;100.00;101301.41;5147003;28;20053;-77
2021/09/08 02:25:57;;;;;;;5.63;3.78;;;;;;;12.33;100.00;101310.13;5174707;28;20044;-77
2021/09/08 02:28:28;;;;;;;6.38;4.30;;;;;;;12.35;100.00;101304.84;5172914;28;20061;-77
2021/09/08 02:30:58;;;;;;;8.00;4.10;;;;;;;12.58;100.00;101308.47;5169436;28;20396;-77
2021/09/08 02:33:28;;;;;;;7.18;3.92;;;;;;;12.52;100.00;101302.56;5164814;28;20054;-78
2021/09/08 02:35:59;;;;;;;6.18;3.75;;;;;;;12.67;100.00;101296.81;5174803;28;20028;-78
2021/09/08 02:38:30;;;;;;;7.47;4.53;;;;;;;12.54;100.00;101296.38;5173392;28;20057;-79
2021/09/08 02:41:11;;;;;;;6.35;3.65;;;;;;;12.50;100.00;101294.72;5174950;28;20117;-77
2021/09/08 02:43:42;;;;;;;6.07;3.90;;;;;;;12.40;100.00;101293.31;5175235;28;20037;-78
2021/09/08 02:46:12;;;;;;;6.05;4.10;;;;;;;12.17;100.00;101285.31;5172623;28;20018;-78
2021/09/08 02:48:42;;;;;;;7.10;4.13;;;;;;;12.08;100.00;101288.22;5174669;28;20029;-77
2021/09/08 02:51:13;;;;;;;8.15;4.60;;;;;;;12.02;100.00;101280.53;5167966;28;20054;-77
2021/09/08 02:53:43;;;;;;;7.03;4.32;;;;;;;11.97;100.00;101284.19;5165236;28;20021;-77
2021/09/08 02:56:13;;;;;;;7.75;4.55;;;;;;;11.97;100.00;101285.03;5172004;28;20037;-78
2021/09/08 02:58:43;;;;;;;6.10;4.53;;;;;;;12.19;100.00;101275.66;5174120;28;20029;-78
2021/09/08 03:01:14;;;;;;;6.82;4.43;;;;;;;12.26;100.00;101273.69;5166642;28;20057;-79
2021/09/08 03:03:44;;;;;;;5.55;3.72;;;;;;;12.27;100.00;101280.66;5166192;28;20037;-78
2021/09/08 03:06:14;;;;;;;7.27;4.40;;;;;;;12.01;100.00;101270.09;5167016;28;20022;-78
2021/09/08 03:08:45;;;;;;;7.53;4.10;;;;;;;12.01;100.00;101275.34;5171318;28;20269;-77
2021/09/08 03:11:15;;;;;;;7.13;4.55;;;;;;;12.03;100.00;101282.25;5169774;28;20018;-78
2021/09/08 03:13:45;;;;;;;6.80;4.47;;;;;;;12.05;100.00;101283.06;5171481;28;20392;-78
2021/09/08 03:16:16;;;;;;;8.70;4.88;;;;;;;12.09;100.00;101265.50;5173507;28;20089;-78
2021/09/08 03:18:47;;;;;;;6.13;3.97;;;;;;;12.33;100.00;101269.97;5166700;28;20396;-78
2021/09/08 03:21:17;;;;;;;5.30;3.97;;;;;;;12.43;100.00;101274.03;5172661;28;20271;-77
2021/09/08 03:23:47;;;;;;;7.15;4.18;;;;;;;12.26;100.00;101268.44;5175909;28;20520;-77
2021/09/08 03:26:18;;;;;;;6.00;4.03;;;;;;;12.29;100.00;101269.19;5173482;28;20025;-77
2021/09/08 03:28:48;;;;;;;7.20;4.30;;;;;;;12.07;100.00;101262.91;5153316;28;20297;-78
2021/09/08 03:31:19;;;;;;;7.07;4.18;;;;;;;12.00;100.00;101261.41;5165516;28;20030;-79
2021/09/08 03:33:49;;;;;;;7.18;4.47;;;;;;;12.20;100.00;101258.13;5166207;28;20131;-78
2021/09/08 03:36:19;;;;;;;5.80;4.07;;;;;;;12.24;100.00;101259.75;5174739;28;20022;-79
2021/09/08 03:38:49;;;;;;;7.35;4.20;;;;;;;12.29;100.00;101260.50;5174413;28;20048;-78
2021/09/08 03:41:20;;;;;;;5.47;3.60;;;;;;;12.29;100.00;101256.09;5170285;28;20432;-77
2021/09/08 03:43:50;;;;;;;5.28;3.42;;;;;;;12.33;100.00;101249.00;5173888;28;20030;-78
2021/09/08 03:46:20;;;;;;;5.65;3.80;;;;;;;12.15;100.00;101255.66;5173136;28;20579;-78
2021/09/08 03:48:51;;;;;;;5.50;4.00;;;;;;;12.01;100.00;101252.63;5165728;28;20030;-79
2021/09/08 03:51:21;;;;;;;7.47;4.13;;;;;;;11.89;100.00;101246.88;5167177;28;20262;-78
2021/09/08 03:53:51;;;;;;;6.35;4.03;;;;;;;11.96;100.00;101244.03;5165794;28;20285;-78
2021/09/08 03:56:22;;;;;;;5.72;3.67;;;;;;;11.88;100.00;101251.28;5169254;28;20489;-79
2021/09/08 03:58:52;;;;;;;7.15;4.38;;;;;;;11.90;100.00;101248.59;5173428;28;20036;-78
2021/09/08 04:01:23;;;;;;;7.70;4.57;;;;;;;11.89;100.00;101241.63;5164066;28;20113;-78
2021/09/08 04:03:53;;;;;;;7.57;4.60;;;;;;;11.99;100.00;101254.41;5148283;28;20033;-78
2021/09/08 04:06:23;;;;;;;7.22;4.78;;;;;;;12.06;100.00;101245.47;5172176;28;20072;-79
2021/09/08 04:08:53;;;;;;;7.57;5.03;;;;;;;12.03;100.00;101252.56;5152402;28;20500;-79
2021/09/08 04:11:24;;;;;;;9.32;4.88;;;;;;;11.95;100.00;101244.94;5173362;28;20368;-78
2021/09/08 04:13:54;;;;;;;8.20;5.10;;;;;;;11.93;100.00;101249.38;5169759;28;20141;-78
2021/09/08 04:16:24;;;;;;;7.03;4.63;;;;;;;11.82;100.00;101251.44;5155260;28;20387;-79
2021/09/08 04:18:55;;;;;;;7.55;4.63;;;;;;;11.78;100.00;101254.22;5169742;28;20149;-78
2021/09/08 04:21:25;;;;;;;9.45;5.30;;;;;;;11.69;100.00;101249.25;5165793;28;20026;-78
2021/09/08 04:23:56;;;;;;;8.90;5.20;;;;;;;11.82;100.00;101242.75;5164588;28;20140;-78
2021/09/08 04:26:26;;;;;;;7.70;4.80;;;;;;;12.01;100.00;101249.13;5152313;28;20476;-79
2021/09/08 04:28:56;;;;;;;10.85;4.95;;;;;;;11.68;100.00;101248.41;5172951;28;20112;-78
2021/09/08 04:31:27;;;;;;;8.00;4.60;;;;;;;11.49;100.00;101244.56;5172491;28;20414;-79
2021/09/08 04:33:57;;;;;;;7.20;4.85;;;;;;;11.45;100.00;101245.53;5169913;28;20030;-78
2021/09/08 04:36:27;;;;;;;9.40;4.97;;;;;;;11.55;100.00;101248.75;5172492;28;20026;-78
2021/09/08 04:38:58;;;;;;;7.05;4.68;;;;;;;11.58;100.00;101246.94;5190790;22;20064;-81
2021/09/08 04:41:28;;;;;;;9.93;4.68;;;;;;;11.61;100.00;101246.00;5166593;28;20506;-81
2021/09/08 04:43:58;;;;;;;9.80;5.35;;;;;;;11.61;100.00;101252.06;5196889;28;20017;-81
2021/09/08 04:46:29;;;;;;;9.05;5.25;;;;;;;11.56;100.00;101248.75;5183663;28;20025;-81
2021/09/08 04:48:59;;;;;;;9.65;5.00;;;;;;;11.53;100.00;101247.94;5169252;28;20029;-81
2021/09/08 04:51:29;;;;;;;9.27;5.20;;;;;;;11.71;100.00;101245.69;5181738;28;20029;-81
2021/09/08 04:54:00;;;;;;;11.57;5.40;;;;;;;11.90;100.00;101248.59;5171665;28;20034;-81
2021/09/08 04:56:30;;;;;;;6.72;4.55;;;;;;;11.89;100.00;101249.50;5175855;28;20282;-81
2021/09/08 04:59:00;;;;;;;7.53;3.97;;;;;;;11.97;100.00;101261.47;5176247;28;20112;-81
2021/09/08 05:01:31;;;;;;;7.50;4.25;;;;;;;12.00;100.00;101258.78;5151840;28;20504;-81
2021/09/08 05:04:02;;;;;;;7.05;3.65;;;;;;;12.07;100.00;101262.91;5153033;28;20066;-81
2021/09/08 05:06:32;;;;;;;6.65;3.92;;;;;;;12.19;100.00;101252.06;5158922;28;20042;-81
2021/09/08 05:09:03;;;;;;;8.38;3.55;;;;;;;12.30;100.00;101262.22;5174869;28;20034;-81
2021/09/08 05:11:33;;;;;;;6.72;3.88;;;;;;;12.24;100.00;101259.75;5174690;28;20083;-81
2021/09/08 05:14:03;;;;;;;7.38;3.85;;;;;;;12.15;100.00;101263.53;5176035;28;20026;-81
2021/09/08 05:16:34;;;;;;;7.53;4.28;;;;;;;12.33;100.00;101262.94;5159854;28;20028;-81
2021/09/08 05:19:04;;;;;;;5.97;3.90;;;;;;;12.27;100.00;101263.16;5162091;28;20057;-81
2021/09/08 05:21:34;;;;;;;6.28;3.80;;;;;;;12.15;100.00;101263.53;5175544;28;20086;-81
2021/09/08 05:24:05;;;;;;;8.40;3.85;;;;;;;12.26;100.00;101257.97;5183432;28;20037;-81
2021/09/08 05:26:35;;;;;;;6.97;4.18;;;;;;;12.46;100.00;101261.66;5183173;28;20455;-81
2021/09/08 05:29:06;;;;;;;8.35;3.90;;;;;;;12.31;100.00;101262.13;5179117;28;20034;-81
2021/09/08 05:31:36;;;;;;;6.45;4.15;;;;;;;12.53;100.00;101255.31;5153919;28;20060;-81
2021/09/08 05:34:06;;;;;;;7.68;4.07;;;;;;;12.56;100.00;101255.22;5173902;28;20041;-81
2021/09/08 05:36:37;;;;;;;7.72;4.13;;;;;;;12.61;100.00;101252.44;5174014;28;20030;-81
2021/09/08 05:39:07;;;;;;;6.93;4.32;;;;;;;12.51;100.00;101254.53;5173265;28;20345;-81
2021/09/08 05:41:37;;;;;;;9.88;4.97;;;;;;;12.28;100.00;101257.00;5177776;28;20542;-81
2021/09/08 05:44:08;;;;;;;8.35;4.90;;;;;;;12.40;100.00;101259.25;5178201;28;20092;-81
2021/09/08 05:46:38;;;;;;;6.22;4.25;;;;;;;12.53;100.00;101251.81;5160608;28;20124;-81
2021/09/08 05:49:08;;;;;;;8.32;5.30;;;;;;;12.60;100.00;101245.50;5162765;28;20030;-81
2021/09/08 05:51:39;;;;;;;9.82;5.63;;;;;;;12.64;100.00;101245.31;5171849;28;20037;-81
2021/09/08 05:54:10;;;;;;;8.68;5.57;;;;;;;12.71;100.00;101244.22;5172247;28;20029;-81
2021/09/08 05:56:40;;;;;;;8.02;5.43;;;;;;;12.73;100.00;101247.66;5161414;28;20045;-81
2021/09/08 05:59:10;;;;;;;12.25;5.00;;;;;;;12.88;100.00;101240.09;5178090;28;20034;-81
2021/09/08 06:01:41;;;;;;;8.35;5.85;;;;;;;13.03;100.00;101244.84;5153743;28;20030;-81
2021/09/08 06:04:11;;;;;;;10.18;6.50;;;;;;;13.08;100.00;101244.69;5156741;28;20041;-81
2021/09/08 06:06:41;;;;;;;13.30;6.93;;;;;;;13.12;100.00;101248.94;5175905;28;20037;-81
2021/09/08 06:09:12;;;;;;;15.13;9.20;;;;;;;13.06;100.00;101247.38;5178569;28;20021;-81
2021/09/08 06:11:42;;;;;;;14.15;9.23;;;;;;;13.19;100.00;101245.16;5177315;28;20101;-81
2021/09/08 06:14:13;;;;;;;15.85;9.38;;;;;;;13.35;100.00;101243.69;5179355;28;20030;-81
2021/09/08 06:16:43;;;;;;;18.13;10.35;;;;;;;13.46;100.00;101244.19;5177339;28;20026;-81
2021/09/08 06:19:13;;;;;;;15.90;9.73;;;;;;;13.60;100.00;101244.53;5161614;28;20022;-81
2021/09/08 06:21:43;;;;;;;15.85;10.40;;;;;;;13.79;100.00;101248.19;5170255;28;20033;-81
2021/09/08 06:24:14;;;;;;;17.90;9.82;;;;;;;13.80;100.00;101248.13;5171524;28;20029;-81
2021/09/08 06:26:44;;;;;;;13.68;8.90;;;;;;;13.91;100.00;101245.94;5178539;28;20112;-81
2021/09/08 06:29:16;;;;;;;16.70;11.10;;;;;;;14.01;100.00;101241.19;5158721;28;20049;-81
2021/09/08 06:31:46;;;;;;;18.92;11.73;;;;;;;14.08;100.00;101247.94;5153332;28;20050;-81
2021/09/08 06:34:17;;;;;;;18.08;11.75;;;;;;;14.29;100.00;101233.97;5157507;28;20022;-81
2021/09/08 06:36:49;;;;;;;18.05;11.27;;;;;;;14.55;100.00;101231.97;5158097;28;20033;-81
2021/09/08 06:39:21;;;;;;;18.80;11.63;;;;;;;14.78;100.00;101231.03;5162229;28;20034;-81
2021/09/08 06:41:51;;;;;;;21.35;13.05;;;;;;;14.97;100.00;101233.66;5174638;28;20036;-81
2021/09/08 06:44:23;;;;;;;22.23;13.70;;;;;;;15.18;100.00;101230.09;5153759;28;20025;-81
2021/09/08 06:46:53;;;;;;;18.45;13.15;;;;;;;15.28;100.00;101228.78;5159999;28;20479;-81
2021/09/08 06:49:24;;;;;;;19.45;12.95;;;;;;;15.42;100.00;101221.16;5161084;28;20022;-81
2021/09/08 06:51:54;;;;;;;22.27;13.80;;;;;;;15.57;100.00;101217.78;5150840;28;20023;-81
2021/09/08 06:54:24;;;;;;;20.92;13.90;;;;;;;15.79;100.00;101217.66;5154360;28;20110;-81
2021/09/08 06:56:55;;;;;;;17.40;11.68;;;;;;;17.83;100.00;101213.31;5179257;28;20025;-81
2021/09/08 06:59:25;;;;;;;16.10;10.97;;;;;;;20.50;88.43;101203.84;5175521;28;20030;-81
2021/09/08 07:01:55;;;;;;;12.02;7.35;;;;;;;22.09;78.63;101200.59;5161129;28;20290;-81
2021/09/08 07:04:26;;;;;;;14.65;9.70;;;;;;;22.68;76.64;101195.22;5161957;28;20160;-81
2021/09/08 07:06:57;;;;;;;10.15;7.55;;;;;;;22.73;75.85;101200.22;5158738;28;20026;-82
2021/09/08 07:09:27;;;;;;;14.57;8.90;;;;;;;24.10;72.78;101197.22;5162028;28;20029;-82
2021/09/08 07:11:57;;;;;;;11.63;8.55;;;;;;;24.18;71.13;101197.41;5159044;28;20647;-82
2021/09/08 07:14:28;;;;;;;10.60;8.05;;;;;;;24.62;71.13;101197.31;5161380;28;20036;-82
2021/09/08 07:16:59;;;;;;;9.83;7.00;;;;;;;25.75;68.64;101189.13;5158945;28;20046;-82
2021/09/08 07:19:29;;;;;;;9.45;6.93;;;;;;;25.90;67.28;101190.47;5161604;28;20025;-82
2021/09/08 07:22:00;;;;;;;11.15;8.00;;;;;;;24.97;69.98;101192.50;5151540;28;20105;-82
2021/09/08 07:24:30;;;;;;;10.80;6.78;;;;;;;24.93;70.20;101186.56;5155481;28;20062;-82
2021/09/08 07:27:00;;;;;;;8.10;6.03;;;;;;;25.86;69.77;101180.16;5177604;28;20164;-82
2021/09/08 07:29:31;;;;;;;9.60;7.30;;;;;;;25.98;67.31;101187.13;5159784;28;20027;-82
2021/09/08 07:32:02;;;;;;;9.80;7.63;;;;;;;26.89;65.29;101183.94;5168248;28;20065;-82
2021/09/08 07:34:32;;;;;;;8.68;6.97;;;;;;;28.93;60.38;101170.69;5157988;28;20022;-82
2021/09/08 07:37:03;;;;;;;9.48;6.93;;;;;;;28.76;60.76;101176.91;5175545;28;20144;-82
2021/09/08 07:39:33;;;;;;;9.95;7.43;;;;;;;29.38;58.42;101181.28;5159794;28;20055;-82
2021/09/08 07:42:04;;;;;;;10.57;6.82;;;;;;;28.90;58.43;101173.72;5159574;28;20038;-82
2021/09/08 07:44:34;;;;;;;10.75;7.50;;;;;;;28.53;58.28;101171.34;5176191;28;20599;-82
2021/09/08 07:47:05;;;;;;;10.70;7.82;;;;;;;28.50;60.30;101174.34;5176844;28;20022;-82
2021/09/08 07:49:36;;;;;;;10.57;7.15;;;;;;;28.84;57.83;101178.84;5176032;28;20513;-82
2021/09/08 07:52:06;;;;;;;11.43;7.95;;;;;;;29.01;57.91;101178.84;5173847;28;20040;-81
2021/09/08 07:54:36;;;;;;;9.38;7.35;;;;;;;28.73;59.07;101171.84;5178358;28;20026;-82
2021/09/08 07:57:07;;;;;;;9.90;7.63;;;;;;;29.44;56.99;101173.38;5176931;28;20034;-81
2021/09/08 07:59:37;;;;;;;11.63;8.03;;;;;;;27.37;61.64;101172.13;5176486;28;20057;-81
2021/09/08 08:02:07;;;;;;;13.20;7.37;;;;;;;28.28;60.47;101170.22;5149752;28;20392;-81
2021/09/08 08:04:38;;;;;;;8.98;7.25;;;;;;;30.08;54.72;101167.50;5175107;28;20033;-81
2021/09/08 08:07:08;;;;;;;10.80;7.35;;;;;;;29.35;55.40;101163.59;5160033;28;20061;-82
2021/09/08 08:09:42;;;;;;;9.77;6.93;;;;;;;29.41;56.21;101167.50;5177129;28;20033;-81
2021/09/08 08:12:12;;;;;;;11.70;7.45;;;;;;;27.62;58.30;101158.00;5174664;28;20030;-81
2021/09/08 08:14:43;;;;;;;9.10;6.60;;;;;;;28.93;55.69;101159.09;5177070;28;20022;-81
2021/09/08 08:17:13;;;;;;;11.27;6.80;;;;;;;28.93;55.71;101156.41;5158002;28;20102;-81
2021/09/08 08:19:47;;;;;;;9.60;6.77;;;;;;;27.92;57.51;101156.91;5159888;28;20030;-81
2021/09/08 08:22:18;;;;;;;8.23;6.00;;;;;;;28.86;57.67;101152.63;5167164;28;20056;-81
2021/09/08 08:24:48;;;;;;;8.38;6.10;;;;;;;29.37;55.37;101149.97;5173438;28;20030;-81
2021/09/08 08:27:18;;;;;;;8.93;6.50;;;;;;;28.03;58.48;101151.31;5174245;28;20411;-81
2021/09/08 08:29:49;;;;;;;7.40;5.22;;;;;;;30.00;54.75;101149.41;5176437;28;20080;-81
2021/09/08 08:32:19;;;;;;;8.60;5.63;;;;;;;29.37;54.36;101155.34;5148796;28;20026;-81
2021/09/08 08:34:51;;;;;;;7.43;5.25;;;;;;;29.03;56.03;101152.59;5173832;28;20101;-81
2021/09/08 08:37:21;;;;;;;6.82;5.10;;;;;;;28.92;56.23;101158.22;5161139;28;20156;-79
2021/09/08 08:39:51;;;;;;;7.75;5.50;;;;;;;28.00;58.46;101157.84;5170173;28;20611;-79
2021/09/08 08:42:26;;;;;;;7.70;5.37;;;;;;;28.31;56.24;101150.28;5177694;28;20081;-79
2021/09/08 08:44:56;;;;;;;6.78;5.15;;;;;;;29.37;54.57;101156.19;5178886;28;20037;-78
2021/09/08 08:47:27;;;;;;;6.57;4.78;;;;;;;28.95;54.20;101157.09;5159492;28;20115;-78
2021/09/08 08:49:59;;;;;;;8.32;5.38;;;;;;;29.19;54.51;101151.84;5177302;28;20030;-79
2021/09/08 08:52:29;;;;;;;7.88;5.65;;;;;;;29.25;54.60;101148.53;5164674;28;20054;-78
2021/09/08 08:54:59;;;;;;;7.33;5.00;;;;;;;29.54;54.79;101151.75;5174848;28;20064;-79
2021/09/08 08:57:30;;;;;;;6.60;4.90;;;;;;;29.60;53.42;101148.41;5174954;28;20145;-79
2021/09/08 09:00:01;;;;;;;5.93;4.70;;;;;;;28.79;55.33;101156.94;5180451;28;20335;-78
2021/09/08 09:02:32;;;;;;;6.93;4.97;;;;;;;28.23;57.03;101145.66;5172273;28;20022;-78
2021/09/08 09:05:05;;;;;;;9.95;5.03;;;;;;;29.56;53.97;101138.97;5166713;28;20518;-79
2021/09/08 09:07:42;;;;;;;7.43;5.40;;;;;;;28.13;55.24;101149.41;5184780;28;20056;-79
2021/09/08 09:10:14;;;;;;;9.25;5.78;;;;;;;27.91;55.80;101139.94;5166313;28;20476;-78
2021/09/08 09:12:45;;;;;;;7.63;5.20;;;;;;;29.39;54.94;101139.88;5177599;28;20037;-79
2021/09/08 09:15:19;;;;;;;8.35;6.10;;;;;;;28.37;55.75;101142.47;5174604;28;20056;-78
2021/09/08 09:17:50;;;;;;;7.28;5.45;;;;;;;28.53;55.27;101130.97;5156149;28;20023;-78
2021/09/08 09:20:32;;;;;;;5.90;4.68;;;;;;;28.20;55.21;101134.34;5173241;28;20037;-78
2021/09/08 09:23:04;;;;;;;8.48;5.80;;;;;;;26.80;58.58;101145.38;5170976;28;20156;-78
2021/09/08 09:25:38;;;;;;;7.70;5.70;;;;;;;25.86;60.00;101142.66;5153627;28;20085;-78
2021/09/08 09:28:09;;;;;;;7.23;4.83;;;;;;;25.75;61.56;101145.41;5173856;28;20111;-78
2021/09/08 09:30:41;;;;;;;8.70;5.68;;;;;;;25.20;62.29;101146.75;5172781;28;20073;-80
2021/09/08 09:33:11;;;;;;;7.95;5.20;;;;;;;24.91;64.11;101136.81;5178307;28;20026;-80
2021/09/08 09:35:45;;;;;;;6.50;4.80;;;;;;;25.24;63.30;101139.28;5183631;28;20032;-80
2021/09/08 09:38:15;;;;;;;7.20;4.80;;;;;;;24.88;63.65;101129.06;5159193;28;20463;-80
2021/09/08 09:40:49;;;;;;;7.70;5.05;;;;;;;24.49;63.91;101129.75;5177753;28;20114;-80
2021/09/08 09:43:19;;;;;;;7.80;4.95;;;;;;;24.90;63.66;101121.75;5156711;28;20041;-80
2021/09/08 09:45:49;;;;;;;6.20;4.60;;;;;;;24.91;64.23;101110.06;5176448;28;20399;-80
2021/09/08 09:48:20;;;;;;;6.73;4.60;;;;;;;24.46;64.61;101111.31;5157900;28;20034;-80
2021/09/08 09:50:50;;;;;;;6.33;4.60;;;;;;;24.60;63.92;101108.34;5173118;28;20285;-80
2021/09/08 09:53:20;;;;;;;7.00;4.57;;;;;;;24.55;63.21;101109.72;5164975;28;20281;-80
2021/09/08 09:55:50;;;;;;;6.55;4.22;;;;;;;24.22;64.02;101113.34;5180735;28;20646;-80
2021/09/08 09:58:21;;;;;;;5.80;4.15;;;;;;;24.36;64.45;101104.19;5170929;28;20022;-80
2021/09/08 10:00:52;;;;;;;6.85;3.63;;;;;;;24.28;63.96;101090.63;5171144;28;20073;-80
2021/09/08 10:03:23;;;;;;;5.93;3.95;;;;;;;24.41;64.30;101094.78;5169568;28;20046;-80
2021/09/08 10:05:53;;;;;;;6.00;4.13;;;;;;;24.05;64.79;101091.69;5159320;28;20061;-80
2021/09/08 10:08:27;;;;;;;6.85;3.92;;;;;;;24.16;64.44;101092.50;5180562;28;20021;-80
2021/09/08 10:11:02;;;;;;;7.28;4.72;;;;;;;24.10;64.72;101082.34;5176024;28;20084;-80
2021/09/08 10:13:40;;;;;;;6.05;4.20;;;;;;;24.28;65.78;101080.78;5162584;28;20037;-80
2021/09/08 10:16:11;;;;;;;5.28;3.70;;;;;;;24.32;64.44;101082.22;5161549;28;20057;-80
2021/09/08 10:18:41;;;;;;;5.75;3.97;;;;;;;24.16;66.29;101084.47;5160535;28;20436;-80
2021/09/08 10:21:14;;;;;;;7.50;4.13;;;;;;;24.06;65.23;101070.19;5173783;28;20054;-80
2021/09/08 10:24:03;;;;;;;5.78;3.72;;;;;;;24.19;64.40;101065.50;5153043;28;20022;-80
2021/09/08 10:26:34;;;;;;;6.43;4.50;;;;;;;24.22;65.32;101062.59;5179015;28;20030;-80
2021/09/08 10:29:07;;;;;;;7.07;4.28;;;;;;;24.27;65.09;101057.72;5178329;28;20517;-80
2021/09/08 10:31:40;;;;;;;6.72;4.20;;;;;;;23.86;65.14;101060.31;5170165;28;20058;-80
2021/09/08 10:34:11;;;;;;;5.10;3.53;;;;;;;24.02;65.28;101054.56;5174853;28;20052;-80
2021/09/08 10:36:44;;;;;;;5.47;3.75;;;;;;;24.02;62.79;101050.06;5166297;28;20112;-80
2021/09/08 10:39:19;;;;;;;6.45;4.10;;;;;;;23.94;64.79;101039.16;5176124;22;20038;-80
2021/09/08 10:41:51;;;;;;;;;;;;;;;24.00;65.14;101046.66;5203902;28;20478;-80
2021/09/08 10:44:42;;;;;;;5.43;3.70;;;;;;;24.11;66.16;101040.41;5175040;28;19914;-80
2021/09/08 10:47:13;;;;;;;5.65;3.58;;;;;;;23.96;64.43;101034.53;5196550;28;20082;-80
2021/09/08 10:49:43;;;;;;;5.35;3.03;;;;;;;24.12;62.00;101036.78;5182285;28;20048;-80
2021/09/08 10:52:46;;;;;;;4.80;3.00;;;;;;;24.12;63.53;101029.63;5170574;28;20022;-80
2021/09/08 10:55:20;;;;;;;4.75;3.08;;;;;;;23.99;62.75;101031.63;5155439;28;20507;-80
2021/09/08 10:57:52;;;;;;;3.97;2.83;;;;;;;24.04;63.09;101028.56;5181651;28;20149;-80
2021/09/08 11:00:28;;;;;;;4.38;2.80;;;;;;;24.16;62.81;101035.53;5177643;28;20022;-80
2021/09/08 11:02:58;;;;;;;;;;;;;;;24.33;63.15;101032.28;5188518;28;20084;-79
2021/09/08 11:05:29;;;;;;;4.53;3.17;;;;;;;24.37;62.37;101021.19;5198609;28;19938;-79
2021/09/08 11:07:59;;;;;;;5.82;3.30;;;;;;;24.33;60.91;101018.91;5195380;28;20486;-79
2021/09/08 11:10:32;;;;;;;5.63;3.20;;;;;;;24.26;62.80;101013.28;5177093;28;20112;-79
2021/09/08 11:13:03;;;;;;;5.32;2.90;;;;;;;24.30;63.66;101009.34;5195819;28;20319;-79
2021/09/08 11:15:38;;;;;;;3.47;2.10;;;;;;;24.32;58.44;100999.38;5200107;28;20427;-81
2021/09/08 11:18:12;;;;;;;5.55;2.38;;;;;;;24.45;60.07;101001.84;5178088;28;20034;-80
2021/09/08 11:20:43;;;;;;;3.67;2.30;;;;;;;24.40;60.61;100993.38;5175820;28;20083;-79
2021/09/08 11:23:14;;;;;;;5.43;2.13;;;;;;;24.46;60.18;100999.03;5171440;28;20022;-79
2021/09/08 11:25:45;;;;;;;5.95;2.20;;;;;;;24.54;59.76;100996.56;5195178;28;20029;-80
2021/09/08 11:28:15;;;;;;;3.92;2.25;;;;;;;24.50;59.88;100988.91;5174604;28;20486;-81
2021/09/08 11:30:46;;;;;;;3.10;2.28;;;;;;;24.32;58.73;100994.03;5184345;28;20036;-81
2021/09/08 11:33:16;;;;;;;4.93;2.20;;;;;;;24.52;61.36;100992.34;5180228;28;20029;-80
2021/09/08 11:35:49;;;;;;;3.40;1.90;;;;;;;24.70;60.11;100991.59;5178491;28;20029;-79